createdAt,value
2023-05-13T00:00:48.148Z,0
2023-05-13T00:01:49.994Z,0
2023-05-13T00:02:50.410Z,0
2023-05-13T00:03:51.147Z,0
2023-05-13T00:04:51.757Z,0
2023-05-13T00:05:52.384Z,0
2023-05-13T00:06:52.966Z,0
2023-05-13T00:07:53.560Z,0
2023-05-13T00:08:54.158Z,0
2023-05-13T00:09:54.753Z,0
2023-05-13T00:10:55.353Z,0
2023-05-13T00:11:55.992Z,0
2023-05-13T00:12:56.589Z,0
2023-05-13T00:13:57.188Z,0
2023-05-13T00:14:57.802Z,0
2023-05-13T00:15:58.526Z,0
2023-05-13T00:16:59.138Z,0
2023-05-13T00:17:59.811Z,0
2023-05-13T00:19:00.472Z,0
2023-05-13T00:20:01.051Z,0
2023-05-13T00:21:01.634Z,0
2023-05-13T00:22:02.229Z,0
2023-05-13T00:23:02.845Z,0
2023-05-13T00:24:03.459Z,0
2023-05-13T00:25:04.031Z,0
2023-05-13T00:26:04.631Z,0
2023-05-13T00:27:05.221Z,0
2023-05-13T00:28:05.842Z,0
2023-05-13T00:29:06.439Z,0
2023-05-13T00:30:07.025Z,0
2023-05-13T00:31:07.687Z,0
2023-05-13T00:32:08.229Z,0
2023-05-13T00:33:08.825Z,0
2023-05-13T00:34:09.450Z,0
2023-05-13T00:35:10.034Z,0
2023-05-13T00:36:10.630Z,0
2023-05-13T00:37:11.259Z,0
2023-05-13T00:38:11.840Z,0
2023-05-13T00:39:12.454Z,0
2023-05-13T00:40:13.072Z,0
2023-05-13T00:41:13.688Z,0
2023-05-13T00:42:14.268Z,0
2023-05-13T00:43:14.857Z,0
2023-05-13T00:44:15.452Z,0
2023-05-13T00:45:16.053Z,0
2023-05-13T00:46:16.716Z,0
2023-05-13T00:47:17.356Z,0
2023-05-13T00:48:17.907Z,0
2023-05-13T00:49:18.504Z,0
2023-05-13T00:50:19.192Z,0
2023-05-13T00:51:19.849Z,0
2023-05-13T00:52:20.440Z,0
2023-05-13T00:53:21.032Z,0
2023-05-13T00:54:21.627Z,0
2023-05-13T00:55:22.241Z,0
2023-05-13T00:56:22.827Z,0
2023-05-13T00:57:23.430Z,0
2023-05-13T00:58:24.047Z,0
2023-05-13T00:59:24.640Z,0
2023-05-13T01:00:25.238Z,0
2023-05-13T01:01:25.856Z,0
2023-05-13T01:02:26.500Z,0
2023-05-13T01:03:27.095Z,0
2023-05-13T01:04:27.669Z,0
2023-05-13T01:05:28.269Z,0
2023-05-13T01:06:28.870Z,0
2023-05-13T01:07:29.477Z,0
2023-05-13T01:08:30.080Z,0
2023-05-13T01:09:30.669Z,0
2023-05-13T01:10:31.259Z,0
2023-05-13T01:11:31.859Z,0
2023-05-13T01:12:32.453Z,0
2023-05-13T01:13:33.048Z,0
2023-05-13T01:14:33.640Z,0
2023-05-13T01:15:34.233Z,0
2023-05-13T01:16:34.864Z,0
2023-05-13T01:17:35.437Z,0
2023-05-13T01:18:36.048Z,0
2023-05-13T01:19:36.619Z,0
2023-05-13T01:20:37.214Z,0
2023-05-13T01:21:37.813Z,0
2023-05-13T01:22:38.403Z,0
2023-05-13T01:23:39.006Z,0
2023-05-13T01:24:39.625Z,0
2023-05-13T01:25:40.201Z,0
2023-05-13T01:26:40.806Z,0
2023-05-13T01:27:41.415Z,0
2023-05-13T01:28:42.014Z,0
2023-05-13T01:29:42.650Z,0
2023-05-13T01:30:43.226Z,0
2023-05-13T01:31:43.872Z,0
2023-05-13T01:32:44.474Z,0
2023-05-13T01:33:45.043Z,0
2023-05-13T01:34:45.646Z,0
2023-05-13T01:35:46.233Z,0
2023-05-13T01:36:46.823Z,0
2023-05-13T01:37:47.421Z,0
2023-05-13T01:38:48.061Z,0
2023-05-13T01:39:48.698Z,0
2023-05-13T01:40:49.293Z,0
2023-05-13T01:41:49.895Z,0
2023-05-13T01:42:50.509Z,0
2023-05-13T01:43:51.121Z,0
2023-05-13T01:44:51.748Z,0
2023-05-13T01:45:52.332Z,0
2023-05-13T01:46:53.015Z,0
2023-05-13T01:47:53.711Z,0
2023-05-13T01:48:54.297Z,0
2023-05-13T01:49:54.894Z,0
2023-05-13T01:50:55.489Z,0
2023-05-13T01:51:56.085Z,0
2023-05-13T01:52:56.677Z,0
2023-05-13T01:53:57.271Z,0
2023-05-13T01:54:57.865Z,0
2023-05-13T01:55:58.459Z,0
2023-05-13T01:56:59.060Z,0
2023-05-13T01:57:59.649Z,0
2023-05-13T01:59:00.240Z,0
2023-05-13T02:00:00.849Z,0
2023-05-13T02:01:01.430Z,0
2023-05-13T02:02:02.111Z,0
2023-05-13T02:03:02.759Z,0
2023-05-13T02:04:03.443Z,0
2023-05-13T02:05:04.063Z,0
2023-05-13T02:06:04.679Z,0
2023-05-13T02:07:05.274Z,0
2023-05-13T02:08:05.867Z,0
2023-05-13T02:09:06.463Z,0
2023-05-13T02:10:07.058Z,0
2023-05-13T02:11:07.651Z,0
2023-05-13T02:12:08.246Z,0
2023-05-13T02:13:08.856Z,0
2023-05-13T02:14:09.437Z,0
2023-05-13T02:15:10.027Z,0
2023-05-13T02:16:10.646Z,0
2023-05-13T02:17:11.327Z,0
2023-05-13T02:18:11.965Z,0
2023-05-13T02:19:12.578Z,0
2023-05-13T02:20:13.140Z,0
2023-05-13T02:21:13.730Z,0
2023-05-13T02:22:14.332Z,0
2023-05-13T02:23:14.942Z,0
2023-05-13T02:24:15.535Z,0
2023-05-13T02:25:16.132Z,0
2023-05-13T02:26:16.719Z,0
2023-05-13T02:27:17.339Z,0
2023-05-13T02:28:17.930Z,0
2023-05-13T02:29:18.522Z,0
2023-05-13T02:30:19.250Z,0
2023-05-13T02:31:19.981Z,0
2023-05-13T02:32:20.519Z,0
2023-05-13T02:33:21.138Z,0
2023-05-13T02:34:21.724Z,0
2023-05-13T02:35:22.336Z,0
2023-05-13T02:36:22.936Z,0
2023-05-13T02:37:23.528Z,0
2023-05-13T02:38:24.120Z,0
2023-05-13T02:39:24.712Z,0
2023-05-13T02:40:25.318Z,0
2023-05-13T02:41:25.905Z,0
2023-05-13T02:42:26.500Z,0
2023-05-13T02:43:27.112Z,0
2023-05-13T02:44:27.707Z,0
2023-05-13T02:45:28.303Z,0
2023-05-13T02:46:28.975Z,0
2023-05-13T02:47:29.629Z,0
2023-05-13T02:48:30.213Z,0
2023-05-13T02:49:30.828Z,0
2023-05-13T02:50:31.428Z,4
2023-05-13T02:51:32.044Z,4
2023-05-13T02:52:32.656Z,0
2023-05-13T02:53:33.249Z,0
2023-05-13T02:54:33.846Z,4
2023-05-13T02:55:34.442Z,4
2023-05-13T02:56:35.042Z,4
2023-05-13T02:57:35.649Z,4
2023-05-13T02:58:36.272Z,8
2023-05-13T02:59:36.861Z,4
2023-05-13T03:00:37.456Z,4
2023-05-13T03:01:38.139Z,8
2023-05-13T03:02:38.842Z,12
2023-05-13T03:03:39.487Z,12
2023-05-13T03:04:40.070Z,16
2023-05-13T03:05:40.665Z,16
2023-05-13T03:06:41.280Z,20
2023-05-13T03:07:41.881Z,20
2023-05-13T03:08:42.478Z,24
2023-05-13T03:09:43.070Z,28
2023-05-13T03:10:43.675Z,32
2023-05-13T03:11:44.262Z,36
2023-05-13T03:12:44.858Z,40
2023-05-13T03:13:45.453Z,44
2023-05-13T03:14:46.052Z,56
2023-05-13T03:15:46.676Z,60
2023-05-13T03:16:47.250Z,72
2023-05-13T03:17:47.966Z,80
2023-05-13T03:18:48.625Z,92
2023-05-13T03:19:49.175Z,104
2023-05-13T03:20:49.797Z,116
2023-05-13T03:21:50.411Z,132
2023-05-13T03:22:51.004Z,148
2023-05-13T03:23:51.602Z,164
2023-05-13T03:24:52.232Z,180
2023-05-13T03:25:52.794Z,204
2023-05-13T03:26:53.401Z,224
2023-05-13T03:27:53.997Z,252
2023-05-13T03:28:54.623Z,276
2023-05-13T03:29:55.209Z,304
2023-05-13T03:30:55.870Z,332
2023-05-13T03:31:56.479Z,364
2023-05-13T03:32:57.128Z,396
2023-05-13T03:33:57.697Z,436
2023-05-13T03:34:58.295Z,468
2023-05-13T03:35:58.892Z,508
2023-05-13T03:36:59.510Z,556
2023-05-13T03:38:00.106Z,596
2023-05-13T03:39:00.737Z,644
2023-05-13T03:40:01.325Z,692
2023-05-13T03:41:01.927Z,736
2023-05-13T03:42:02.516Z,784
2023-05-13T03:43:03.117Z,840
2023-05-13T03:44:03.721Z,892
2023-05-13T03:45:04.315Z,944
2023-05-13T03:46:04.913Z,1000
2023-05-13T03:47:05.564Z,1056
2023-05-13T03:48:06.185Z,1116
2023-05-13T03:49:06.760Z,1172
2023-05-13T03:50:07.354Z,1232
2023-05-13T03:51:07.955Z,1292
2023-05-13T03:52:08.552Z,1360
2023-05-13T03:53:09.170Z,1424
2023-05-13T03:54:09.769Z,1492
2023-05-13T03:55:10.372Z,1564
2023-05-13T03:56:10.988Z,1636
2023-05-13T03:57:11.592Z,1712
2023-05-13T03:58:12.192Z,1776
2023-05-13T03:59:12.791Z,1848
2023-05-13T04:00:13.390Z,1916
2023-05-13T04:01:13.992Z,1992
2023-05-13T04:02:14.619Z,2068
2023-05-13T04:03:15.216Z,2152
2023-05-13T04:04:15.790Z,2236
2023-05-13T04:05:16.523Z,2332
2023-05-13T04:06:17.170Z,2440
2023-05-13T04:07:17.773Z,2560
2023-05-13T04:08:18.389Z,2672
2023-05-13T04:09:18.992Z,2784
2023-05-13T04:10:19.786Z,2892
2023-05-13T04:11:20.204Z,2976
2023-05-13T04:12:20.822Z,3064
2023-05-13T04:13:21.423Z,3136
2023-05-13T04:14:22.019Z,3192
2023-05-13T04:15:22.630Z,3244
2023-05-13T04:16:23.276Z,3292
2023-05-13T04:17:23.899Z,3344
2023-05-13T04:18:24.599Z,3404
2023-05-13T04:19:25.139Z,3468
2023-05-13T04:20:25.763Z,3532
2023-05-13T04:21:26.362Z,3588
2023-05-13T04:22:26.985Z,3652
2023-05-13T04:23:27.579Z,3736
2023-05-13T04:24:28.178Z,3836
2023-05-13T04:25:28.782Z,3952
2023-05-13T04:26:29.414Z,4072
2023-05-13T04:27:30.023Z,4196
2023-05-13T04:28:30.619Z,4316
2023-05-13T04:29:31.216Z,4460
2023-05-13T04:30:31.817Z,4548
2023-05-13T04:31:32.478Z,4600
2023-05-13T04:32:33.083Z,4632
2023-05-13T04:33:33.669Z,4636
2023-05-13T04:34:34.263Z,4640
2023-05-13T04:35:34.862Z,4664
2023-05-13T04:36:35.462Z,4688
2023-05-13T04:37:36.064Z,4732
2023-05-13T04:38:36.682Z,4784
2023-05-13T04:39:37.282Z,4848
2023-05-13T04:40:37.918Z,4928
2023-05-13T04:41:38.499Z,5004
2023-05-13T04:42:39.101Z,5088
2023-05-13T04:43:39.696Z,5196
2023-05-13T04:44:40.294Z,5296
2023-05-13T04:45:40.901Z,5376
2023-05-13T04:46:41.554Z,5452
2023-05-13T04:47:42.196Z,5512
2023-05-13T04:48:42.811Z,5580
2023-05-13T04:49:43.928Z,5700
2023-05-13T04:50:45.056Z,5896
2023-05-13T04:51:45.722Z,6148
2023-05-13T04:52:46.714Z,6456
2023-05-13T04:53:47.324Z,6828
2023-05-13T04:54:47.943Z,7256
2023-05-13T04:55:48.557Z,7712
2023-05-13T04:56:49.179Z,8236
2023-05-13T04:57:49.740Z,8856
2023-05-13T04:58:50.342Z,9476
2023-05-13T04:59:50.950Z,9992
2023-05-13T05:00:51.542Z,10400
2023-05-13T05:01:52.180Z,10572
2023-05-13T05:02:52.824Z,10508
2023-05-13T05:03:53.428Z,10260
2023-05-13T05:04:54.016Z,9812
2023-05-13T05:05:54.641Z,9340
2023-05-13T05:06:55.246Z,8896
2023-05-13T05:07:55.844Z,8556
2023-05-13T05:08:56.450Z,8284
2023-05-13T05:09:57.062Z,8072
2023-05-13T05:10:57.661Z,7916
2023-05-13T05:11:58.262Z,7804
2023-05-13T05:12:58.883Z,7728
2023-05-13T05:13:59.479Z,7680
2023-05-13T05:15:00.148Z,7656
2023-05-13T05:16:00.733Z,7652
2023-05-13T05:17:01.356Z,7664
2023-05-13T05:18:02.073Z,7696
2023-05-13T05:19:02.620Z,7732
2023-05-13T05:20:03.192Z,7768
2023-05-13T05:21:03.792Z,7796
2023-05-13T05:22:04.388Z,7824
2023-05-13T05:23:04.989Z,7872
2023-05-13T05:24:05.590Z,7944
2023-05-13T05:25:06.186Z,8008
2023-05-13T05:26:11.866Z,8064
2023-05-13T05:27:08.378Z,8124
2023-05-13T05:28:08.980Z,8180
2023-05-13T05:29:09.580Z,8244
2023-05-13T05:30:10.189Z,8316
2023-05-13T05:31:10.844Z,8388
2023-05-13T05:32:11.390Z,8472
2023-05-13T05:33:12.004Z,8544
2023-05-13T05:34:12.616Z,8628
2023-05-13T05:35:13.238Z,8700
2023-05-13T05:36:13.811Z,8788
2023-05-13T05:37:14.411Z,8872
2023-05-13T05:38:15.037Z,8960
2023-05-13T05:39:15.637Z,9048
2023-05-13T05:40:16.259Z,9104
2023-05-13T05:41:16.853Z,9212
2023-05-13T05:42:17.450Z,9244
2023-05-13T05:43:18.051Z,9380
2023-05-13T05:44:18.650Z,9504
2023-05-13T05:45:19.252Z,9624
2023-05-13T05:46:19.909Z,9700
2023-05-13T05:47:20.470Z,9768
2023-05-13T05:48:21.085Z,9916
2023-05-13T05:49:21.707Z,10032
2023-05-13T05:50:22.540Z,10024
2023-05-13T05:51:23.324Z,10124
2023-05-13T05:52:23.924Z,10060
2023-05-13T05:53:24.527Z,10368
2023-05-13T05:54:25.128Z,10676
2023-05-13T05:55:25.746Z,10844
2023-05-13T05:56:26.348Z,10972
2023-05-13T05:57:26.951Z,11120
2023-05-13T05:58:27.550Z,10884
2023-05-13T05:59:28.161Z,11320
2023-05-13T06:00:28.807Z,11988
2023-05-13T06:01:29.386Z,12468
2023-05-13T06:02:30.098Z,12956
2023-05-13T06:03:30.776Z,13352
2023-05-13T06:04:31.421Z,13668
2023-05-13T06:05:31.977Z,13688
2023-05-13T06:06:32.608Z,13544
2023-05-13T06:07:33.198Z,13424
2023-05-13T06:08:33.794Z,13432
2023-05-13T06:09:34.401Z,13388
2023-05-13T06:10:35.006Z,13352
2023-05-13T06:11:35.597Z,13472
2023-05-13T06:12:36.195Z,13524
2023-05-13T06:13:36.799Z,13508
2023-05-13T06:14:37.466Z,13512
2023-05-13T06:15:38.106Z,13700
2023-05-13T06:16:38.687Z,13796
2023-05-13T06:17:39.326Z,13868
2023-05-13T06:18:39.946Z,13796
2023-05-13T06:19:40.518Z,14052
2023-05-13T06:20:41.118Z,14868
2023-05-13T06:21:41.731Z,15156
2023-05-13T06:22:42.326Z,14632
2023-05-13T06:23:42.925Z,14684
2023-05-13T06:24:43.527Z,15620
2023-05-13T06:25:44.125Z,15956
2023-05-13T06:26:44.723Z,15312
2023-05-13T06:27:45.326Z,15460
2023-05-13T06:28:45.928Z,15772
2023-05-13T06:29:46.534Z,15948
2023-05-13T06:30:47.134Z,17000
2023-05-13T06:31:47.813Z,18036
2023-05-13T06:33:00.209Z,17904
2023-05-13T06:33:50.128Z,16660
2023-05-13T06:34:50.660Z,16000
2023-05-13T06:35:51.278Z,17152
2023-05-13T06:36:51.881Z,19424
2023-05-13T06:37:52.497Z,21184
2023-05-13T06:38:53.116Z,21344
2023-05-13T06:39:53.720Z,19104
2023-05-13T06:40:54.355Z,17280
2023-05-13T06:41:54.935Z,17888
2023-05-13T06:42:55.532Z,19840
2023-05-13T06:43:56.136Z,21024
2023-05-13T06:44:56.757Z,21216
2023-05-13T06:45:57.357Z,21056
2023-05-13T06:46:57.985Z,21600
2023-05-13T06:47:58.594Z,23680
2023-05-13T06:48:59.173Z,24416
2023-05-13T06:49:59.771Z,22304
2023-05-13T06:51:00.378Z,20192
2023-05-13T06:52:01.004Z,20448
2023-05-13T06:53:01.597Z,22880
2023-05-13T06:54:02.210Z,26656
2023-05-13T06:55:02.818Z,28992
2023-05-13T06:56:03.403Z,29024
2023-05-13T06:57:04.026Z,26464
2023-05-13T06:58:04.626Z,22240
2023-05-13T06:59:05.230Z,21536
2023-05-13T07:00:05.850Z,25824
2023-05-13T07:01:06.573Z,31520
2023-05-13T07:02:07.125Z,34176
2023-05-13T07:03:08.172Z,32864
2023-05-13T07:04:08.826Z,30432
2023-05-13T07:05:11.156Z,29760
2023-05-13T07:06:10.003Z,30720
2023-05-13T07:07:10.620Z,30080
2023-05-13T07:08:11.233Z,28576
2023-05-13T07:09:11.898Z,27360
2023-05-13T07:10:12.497Z,27232
2023-05-13T07:11:13.038Z,30176
2023-05-13T07:12:13.643Z,33728
2023-05-13T07:13:14.256Z,34880
2023-05-13T07:14:14.852Z,32832
2023-05-13T07:15:15.457Z,32448
2023-05-13T07:16:16.057Z,35488
2023-05-13T07:17:16.675Z,37952
2023-05-13T07:18:17.329Z,36000
2023-05-13T07:19:18.029Z,32256
2023-05-13T07:20:18.623Z,32320
2023-05-13T07:21:19.231Z,35808
2023-05-13T07:22:19.830Z,38016
2023-05-13T07:23:20.434Z,36992
2023-05-13T07:24:21.037Z,34208
2023-05-13T07:25:21.658Z,34432
2023-05-13T07:26:22.245Z,37920
2023-05-13T07:27:22.843Z,40960
2023-05-13T07:28:23.444Z,40032
2023-05-13T07:29:24.885Z,36736
2023-05-13T07:30:25.722Z,35360
2023-05-13T07:31:26.555Z,37120
2023-05-13T07:32:27.459Z,43776
2023-05-13T07:33:28.057Z,49536
2023-05-13T07:34:28.660Z,50016
2023-05-13T07:35:29.263Z,49152
2023-05-13T07:36:29.885Z,52640
2023-05-13T07:37:30.486Z,54240
2023-05-13T07:38:31.114Z,48768
2023-05-13T07:39:31.692Z,40832
2023-05-13T07:40:32.300Z,37920
2023-05-13T07:41:32.926Z,43456
2023-05-13T07:42:33.518Z,49664
2023-05-13T07:43:34.119Z,50912
2023-05-13T07:44:34.723Z,50624
2023-05-13T07:45:35.324Z,51264
2023-05-13T07:46:35.951Z,52352
2023-05-13T07:47:36.566Z,52000
2023-05-13T07:48:37.130Z,48640
2023-05-13T07:49:37.726Z,44928
2023-05-13T07:50:38.377Z,45312
2023-05-13T07:51:38.954Z,48096
2023-05-13T07:52:39.576Z,50016
2023-05-13T07:53:40.177Z,51488
2023-05-13T07:54:40.786Z,54112
2023-05-13T07:55:41.383Z,57088
2023-05-13T07:56:42.052Z,60832
2023-05-13T07:57:42.659Z,63936
2023-05-13T07:58:43.268Z,66720
2023-05-13T07:59:44.945Z,65472
2023-05-13T08:00:45.485Z,55968
2023-05-13T08:01:46.075Z,47360
2023-05-13T08:02:46.710Z,43936
2023-05-13T08:03:47.448Z,45280
2023-05-13T08:04:48.115Z,48352
2023-05-13T08:05:48.693Z,50144
2023-05-13T08:06:49.322Z,47968
2023-05-13T08:07:49.936Z,42880
2023-05-13T08:08:50.543Z,42272
2023-05-13T08:09:51.194Z,48960
2023-05-13T08:10:51.748Z,60128
2023-05-13T08:11:52.370Z,67872
2023-05-13T08:12:52.972Z,65152
2023-05-13T08:13:53.594Z,57696
2023-05-13T08:14:54.201Z,49152
2023-05-13T08:15:54.828Z,49984
2023-05-13T08:16:55.498Z,62048
2023-05-13T08:17:56.104Z,77248
2023-05-13T08:18:56.684Z,86720
2023-05-13T08:19:57.325Z,84640
2023-05-13T08:20:57.879Z,74944
2023-05-13T08:21:58.478Z,66144
2023-05-13T08:22:59.084Z,59104
2023-05-13T08:23:59.687Z,58112
2023-05-13T08:25:00.287Z,62656
2023-05-13T08:26:00.894Z,67008
2023-05-13T08:27:01.493Z,67136
2023-05-13T08:28:02.093Z,64160
2023-05-13T08:29:02.698Z,61568
2023-05-13T08:30:03.298Z,59904
2023-05-13T08:31:03.899Z,62368
2023-05-13T08:32:04.544Z,68352
2023-05-13T08:33:05.192Z,75872
2023-05-13T08:34:05.783Z,81248
2023-05-13T08:35:06.404Z,80928
2023-05-13T08:36:07.010Z,73760
2023-05-13T08:37:07.606Z,63744
2023-05-13T08:38:08.205Z,58912
2023-05-13T08:39:08.853Z,62464
2023-05-13T08:40:09.456Z,66944
2023-05-13T08:41:10.058Z,67040
2023-05-13T08:42:10.667Z,64320
2023-05-13T08:43:11.258Z,64864
2023-05-13T08:44:11.865Z,67840
2023-05-13T08:45:12.469Z,71456
2023-05-13T08:46:13.133Z,75264
2023-05-13T08:47:13.700Z,81312
2023-05-13T08:48:14.319Z,85728
2023-05-13T08:49:14.908Z,88064
2023-05-13T08:50:15.514Z,85824
2023-05-13T08:51:16.111Z,77344
2023-05-13T08:52:16.739Z,70464
2023-05-13T08:53:17.357Z,70400
2023-05-13T08:54:17.941Z,76288
2023-05-13T08:55:18.553Z,81536
2023-05-13T08:56:19.149Z,79264
2023-05-13T08:57:19.752Z,71072
2023-05-13T08:58:20.354Z,67424
2023-05-13T08:59:20.958Z,71680
2023-05-13T09:00:21.939Z,82624
2023-05-13T09:01:22.241Z,95456
2023-05-13T09:02:22.796Z,102432
2023-05-13T09:03:23.400Z,97120
2023-05-13T09:04:24.017Z,86880
2023-05-13T09:05:25.191Z,80960
2023-05-13T09:06:26.020Z,81952
2023-05-13T09:07:26.622Z,91552
2023-05-13T09:08:27.246Z,100224
2023-05-13T09:09:27.851Z,99840
2023-05-13T09:10:28.453Z,92704
2023-05-13T09:11:29.056Z,85472
2023-05-13T09:12:29.678Z,84352
2023-05-13T09:13:30.297Z,84704
2023-05-13T09:14:30.902Z,82912
2023-05-13T09:15:31.505Z,80960
2023-05-13T09:16:32.185Z,85792
2023-05-13T09:17:32.842Z,95104
2023-05-13T09:18:33.529Z,101696
2023-05-13T09:19:34.108Z,101664
2023-05-13T09:20:34.695Z,97760
2023-05-13T09:21:35.304Z,94144
2023-05-13T09:22:35.924Z,91168
2023-05-13T09:23:36.529Z,88352
2023-05-13T09:24:37.152Z,86144
2023-05-13T09:25:37.767Z,85856
2023-05-13T09:26:38.363Z,86816
2023-05-13T09:27:38.979Z,86976
2023-05-13T09:28:39.582Z,87328
2023-05-13T09:29:40.187Z,86368
2023-05-13T09:30:41.082Z,87392
2023-05-13T09:31:41.563Z,93024
2023-05-13T09:32:42.139Z,101088
2023-05-13T09:33:42.737Z,102080
2023-05-13T09:34:43.328Z,97376
2023-05-13T09:35:43.943Z,90400
2023-05-13T09:36:44.561Z,84800
2023-05-13T09:37:45.188Z,85216
2023-05-13T09:38:45.780Z,85472
2023-05-13T09:39:46.380Z,82368
2023-05-13T09:40:46.985Z,80576
2023-05-13T09:41:47.605Z,80672
2023-05-13T09:42:48.211Z,83456
2023-05-13T09:43:48.829Z,89280
2023-05-13T09:44:49.452Z,95040
2023-05-13T09:45:50.079Z,92032
2023-05-13T09:46:50.751Z,81408
2023-05-13T09:47:51.374Z,68352
2023-05-13T09:48:52.077Z,51424
2023-05-13T09:49:52.628Z,46880
2023-05-13T09:50:53.228Z,63616
2023-05-13T09:51:53.830Z,94656
2023-05-13T09:52:54.433Z,119072
2023-05-13T09:53:55.042Z,123136
2023-05-13T09:54:55.661Z,109856
2023-05-13T09:55:56.287Z,96288
2023-05-13T09:56:56.873Z,91264
2023-05-13T09:57:57.481Z,100032
2023-05-13T09:58:58.101Z,113152
2023-05-13T09:59:58.724Z,118304
2023-05-13T10:00:59.385Z,109376
2023-05-13T10:02:00.085Z,96128
2023-05-13T10:03:00.710Z,90528
2023-05-13T10:04:01.296Z,95552
2023-05-13T10:05:01.893Z,104224
2023-05-13T10:06:03.618Z,111808
2023-05-13T10:07:03.131Z,116480
2023-05-13T10:08:03.722Z,119840
2023-05-13T10:09:04.324Z,124864
2023-05-13T10:10:04.934Z,127072
2023-05-13T10:11:05.562Z,122720
2023-05-13T10:12:06.179Z,110144
2023-05-13T10:13:06.778Z,98912
2023-05-13T10:14:07.380Z,97184
2023-05-13T10:15:07.998Z,108320
2023-05-13T10:16:08.615Z,122144
2023-05-13T10:17:09.235Z,126336
2023-05-13T10:18:09.851Z,121568
2023-05-13T10:19:10.590Z,114176
2023-05-13T10:20:11.211Z,98848
2023-05-13T10:21:11.810Z,86496
2023-05-13T10:22:12.414Z,85312
2023-05-13T10:23:13.015Z,93824
2023-05-13T10:24:13.638Z,107104
2023-05-13T10:25:14.247Z,120192
2023-05-13T10:26:14.866Z,122816
2023-05-13T10:27:15.470Z,110336
2023-05-13T10:28:16.068Z,91008
2023-05-13T10:29:16.670Z,75840
2023-05-13T10:30:17.340Z,71392
2023-05-13T10:31:18.025Z,78880
2023-05-13T10:32:18.661Z,97664
2023-05-13T10:33:19.219Z,113696
2023-05-13T10:34:19.827Z,116096
2023-05-13T10:35:20.429Z,105760
2023-05-13T10:36:21.029Z,91808
2023-05-13T10:37:21.651Z,81920
2023-05-13T10:38:22.254Z,82400
2023-05-13T10:39:22.859Z,92608
2023-05-13T10:40:23.708Z,113600
2023-05-13T10:41:24.505Z,133984
2023-05-13T10:42:25.136Z,140032
2023-05-13T10:43:25.754Z,130592
2023-05-13T10:44:26.376Z,119040
2023-05-13T10:45:26.993Z,108832
2023-05-13T10:46:27.664Z,109216
2023-05-13T10:47:28.395Z,118304
2023-05-13T10:48:28.955Z,130176
2023-05-13T10:49:29.505Z,131392
2023-05-13T10:50:30.085Z,120064
2023-05-13T10:51:30.704Z,105696
2023-05-13T10:52:31.352Z,94432
2023-05-13T10:53:31.983Z,92224
2023-05-13T10:54:32.576Z,104768
2023-05-13T10:55:33.179Z,121792
2023-05-13T10:56:33.782Z,131872
2023-05-13T10:57:34.387Z,134112
2023-05-13T10:58:35.012Z,123968
2023-05-13T10:59:35.609Z,106560
2023-05-13T11:00:36.233Z,91904
2023-05-13T11:01:36.867Z,89856
2023-05-13T11:02:37.563Z,98560
2023-05-13T11:03:38.318Z,109792
2023-05-13T11:04:38.853Z,116064
2023-05-13T11:05:39.461Z,113856
2023-05-13T11:06:40.064Z,107200
2023-05-13T11:07:40.674Z,104512
2023-05-13T11:08:41.270Z,105952
2023-05-13T11:09:41.883Z,106880
2023-05-13T11:10:42.482Z,109024
2023-05-13T11:11:43.099Z,112832
2023-05-13T11:12:43.706Z,120928
2023-05-13T11:13:44.338Z,134688
2023-05-13T11:14:44.944Z,146208
2023-05-13T11:15:45.650Z,149888
2023-05-13T11:16:46.416Z,144576
2023-05-13T11:17:47.122Z,127360
2023-05-13T11:18:47.742Z,110560
2023-05-13T11:19:48.371Z,111424
2023-05-13T11:20:52.041Z,129728
2023-05-13T11:21:50.568Z,150368
2023-05-13T11:22:51.184Z,160704
2023-05-13T11:23:51.796Z,153280
2023-05-13T11:24:52.420Z,138432
2023-05-13T11:25:53.026Z,134592
2023-05-13T11:26:53.640Z,145792
2023-05-13T11:27:54.236Z,170080
2023-05-13T11:28:54.864Z,194368
2023-05-13T11:29:55.461Z,204160
2023-05-13T11:30:56.071Z,192160
2023-05-13T11:31:59.265Z,154848
2023-05-13T11:32:57.419Z,120608
2023-05-13T11:33:57.921Z,105152
2023-05-13T11:34:58.511Z,107616
2023-05-13T11:35:59.115Z,124864
2023-05-13T11:36:59.716Z,139584
2023-05-13T11:38:00.639Z,141088
2023-05-13T11:39:01.261Z,134624
2023-05-13T11:40:01.866Z,133664
2023-05-13T11:41:02.467Z,141312
2023-05-13T11:42:03.093Z,158432
2023-05-13T11:43:03.696Z,169760
2023-05-13T11:44:04.301Z,173376
2023-05-13T11:45:04.906Z,165440
2023-05-13T11:46:05.553Z,147968
2023-05-13T11:47:06.266Z,127360
2023-05-13T11:48:06.975Z,113408
2023-05-13T11:49:07.617Z,103424
2023-05-13T11:50:08.208Z,102816
2023-05-13T11:51:08.797Z,114112
2023-05-13T11:52:09.400Z,128896
2023-05-13T11:53:10.002Z,132352
2023-05-13T11:54:10.608Z,127552
2023-05-13T11:55:11.212Z,122720
2023-05-13T11:56:11.822Z,113056
2023-05-13T11:57:12.420Z,107296
2023-05-13T11:58:13.024Z,107456
2023-05-13T11:59:13.638Z,106272
2023-05-13T12:00:14.230Z,97760
2023-05-13T12:01:14.847Z,28832
2023-05-13T12:02:15.509Z,34496
2023-05-13T12:03:16.423Z,44864
2023-05-13T12:04:17.188Z,40832
2023-05-13T12:05:17.807Z,148416
2023-05-13T12:06:18.401Z,143840
2023-05-13T12:07:18.994Z,137184
2023-05-13T12:08:20.227Z,130880
2023-05-13T12:09:21.230Z,132512
2023-05-13T12:10:21.808Z,144832
2023-05-13T12:11:22.414Z,149696
2023-05-13T12:12:23.030Z,120480
2023-05-13T12:13:23.625Z,148256
2023-05-13T12:14:25.246Z,151264
2023-05-13T12:15:26.017Z,148384
2023-05-13T12:16:26.762Z,142144
2023-05-13T12:17:27.340Z,142272
2023-05-13T12:18:27.960Z,146752
2023-05-13T12:19:28.540Z,98464
2023-05-13T12:20:29.155Z,130656
2023-05-13T12:21:29.749Z,43616
2023-05-13T12:22:30.350Z,91008
2023-05-13T12:23:30.957Z,103648
2023-05-13T12:24:31.582Z,111648
2023-05-13T12:25:32.184Z,120864
2023-05-13T12:26:32.790Z,98848
2023-05-13T12:27:33.398Z,124896
2023-05-13T12:28:34.002Z,103648
2023-05-13T12:29:34.605Z,84480
2023-05-13T12:30:35.248Z,72576
2023-05-13T12:31:35.864Z,83840
2023-05-13T12:32:36.473Z,115040
2023-05-13T12:33:37.065Z,144096
2023-05-13T12:34:37.674Z,154400
2023-05-13T12:35:38.277Z,148096
2023-05-13T12:36:39.124Z,132224
2023-05-13T12:37:39.495Z,111904
2023-05-13T12:38:40.106Z,99584
2023-05-13T12:39:40.708Z,105184
2023-05-13T12:40:41.312Z,122048
2023-05-13T12:41:41.913Z,143520
2023-05-13T12:42:42.526Z,158496
2023-05-13T12:43:43.122Z,151104
2023-05-13T12:44:43.726Z,134688
2023-05-13T12:45:45.119Z,114784
2023-05-13T12:46:45.922Z,106944
2023-05-13T12:47:46.595Z,115104
2023-05-13T12:48:47.161Z,137600
2023-05-13T12:49:47.768Z,162336
2023-05-13T12:50:48.373Z,178496
2023-05-13T12:51:48.978Z,184736
2023-05-13T12:52:49.591Z,174112
2023-05-13T12:53:50.189Z,143040
2023-05-13T12:54:50.816Z,125920
2023-05-13T12:55:51.415Z,88160
2023-05-13T12:56:52.022Z,62688
2023-05-13T12:57:52.658Z,107808
2023-05-13T12:58:53.265Z,147456
2023-05-13T12:59:53.871Z,176288
2023-05-13T13:00:54.502Z,189664
2023-05-13T13:01:55.095Z,130720
2023-05-13T13:02:55.752Z,31232
2023-05-13T13:03:56.425Z,30848
2023-05-13T13:04:57.034Z,32704
2023-05-13T13:05:57.656Z,86080
2023-05-13T13:06:58.262Z,62144
2023-05-13T13:07:58.891Z,145760
2023-05-13T13:08:59.569Z,176192
2023-05-13T13:10:00.142Z,175552
2023-05-13T13:11:00.729Z,127232
2023-05-13T13:12:01.340Z,33152
2023-05-13T13:13:01.947Z,35008
2023-05-13T13:14:02.545Z,84960
2023-05-13T13:15:03.154Z,102912
2023-05-13T13:16:03.809Z,40896
2023-05-13T13:17:04.387Z,169824
2023-05-13T13:18:05.025Z,176032
2023-05-13T13:19:05.616Z,157056
2023-05-13T13:20:06.214Z,123680
2023-05-13T13:21:06.830Z,97568
2023-05-13T13:22:07.436Z,49888
2023-05-13T13:23:08.058Z,99680
2023-05-13T13:24:08.697Z,115296
2023-05-13T13:25:09.334Z,134208
2023-05-13T13:26:09.931Z,31456